Time;durP1;ratioP1;P1;durP2;ratioP2;P2;SDS_P1;SDS_P2;PMS_P1;PMS_P2;Temp;Humidity;BMP_temperature;BMP_pressure;BME280_temperature;BME280_humidity;BME280_pressure;Samples;Min_cycle;Max_cycle;Signal;HPM_P1;HPM_P2
2023/10/12 00:02:04;;;;;;;8.13;3.63;;;20.40;99.90;;;;;;4168876;28;20067;-68
2023/10/12 00:04:11;;;;;;;8.25;3.90;;;20.40;99.90;;;;;;4173358;28;20041;-68
2023/10/12 00:06:13;;;;;;;11.13;3.72;;;20.40;99.90;;;;;;4172391;28;20075;-68
2023/10/12 00:08:30;;;;;;;9.75;3.67;;;20.40;99.90;;;;;;4175131;28;20044;-67
2023/10/12 00:10:40;;;;;;;8.13;3.72;;;20.40;99.90;;;;;;4189713;28;20048;-67
2023/10/12 00:12:46;;;;;;;8.60;3.97;;;20.40;99.90;;;;;;4172533;28;20107;-68
2023/10/12 00:14:47;;;;;;;8.63;3.60;;;20.40;99.90;;;;;;4176580;28;20045;-67
2023/10/12 00:16:51;;;;;;;7.70;3.30;;;20.40;99.90;;;;;;4167671;28;20047;-67
2023/10/12 00:18:51;;;;;;;8.80;3.72;;;20.40;99.90;;;;;;4177019;28;20477;-68
2023/10/12 00:20:54;;;;;;;7.20;3.92;;;20.30;99.90;;;;;;4175288;28;20038;-68
2023/10/12 00:22:55;;;;;;;;;;;20.40;99.90;;;;;;4175255;28;20477;-67
2023/10/12 00:24:56;;;;;;;12.35;3.72;;;20.30;99.90;;;;;;4177486;28;19931;-67
2023/10/12 00:26:58;;;;;;;6.80;3.35;;;20.30;99.90;;;;;;4173428;28;20520;-68
2023/10/12 00:28:58;;;;;;;7.07;3.47;;;20.30;99.90;;;;;;4172549;28;20036;-67
2023/10/12 00:31:05;;;;;;;9.52;3.97;;;20.30;99.90;;;;;;4174695;28;20029;-68
2023/10/12 00:33:08;;;;;;;15.30;4.20;;;20.30;99.90;;;;;;4177065;28;20031;-87
2023/10/12 00:35:13;;;;;;;;;;;20.30;99.90;;;;;;4176372;28;20036;-87
2023/10/12 00:37:14;;;;;;;6.53;3.10;;;20.30;99.90;;;;;;4177513;28;19963;-87
2023/10/12 00:39:15;;;;;;;8.07;3.58;;;20.30;99.90;;;;;;4177373;28;20037;-87
2023/10/12 00:41:17;;;;;;;13.48;4.32;;;20.30;99.90;;;;;;4178212;28;20045;-87
2023/10/12 00:43:20;;;;;;;7.10;3.50;;;20.20;99.90;;;;;;4176256;28;20457;-88
2023/10/12 00:45:31;;;;;;;7.43;4.28;;;20.20;99.90;;;;;;4171940;28;20045;-87
2023/10/12 00:47:44;;;;;;;7.95;3.70;;;20.20;99.90;;;;;;4178833;28;20041;-88
2023/10/12 00:49:48;;;;;;;8.20;4.00;;;20.20;99.90;;;;;;4175604;28;20043;-88
2023/10/12 00:51:51;;;;;;;9.15;4.35;;;20.20;99.90;;;;;;4176918;28;20033;-87
2023/10/12 00:53:58;;;;;;;12.82;4.47;;;20.20;99.90;;;;;;4177896;28;20029;-86
2023/10/12 00:56:02;;;;;;;11.35;4.30;;;20.10;99.90;;;;;;4181510;28;20120;-88
2023/10/12 00:58:10;;;;;;;9.75;3.70;;;20.10;99.90;;;;;;4175945;28;20171;-87
2023/10/12 01:00:15;;;;;;;8.35;4.07;;;20.10;99.90;;;;;;4178140;28;20037;-83
2023/10/12 01:02:17;;;;;;;7.90;4.32;;;20.00;99.90;;;;;;4175842;28;20466;-86
2023/10/12 01:04:19;;;;;;;8.98;3.92;;;20.00;99.90;;;;;;4177549;28;20044;-87
2023/10/12 01:08:30;;;;;;;17.15;3.90;;;20.00;99.90;;;;;;4176008;28;20048;-87
2023/10/12 01:10:31;;;;;;;10.63;4.25;;;20.00;99.90;;;;;;4175209;28;20045;-87
2023/10/12 01:12:34;;;;;;;7.90;4.07;;;20.10;99.90;;;;;;4177646;28;20875;-86
2023/10/12 01:14:34;;;;;;;;;;;20.00;99.90;;;;;;4179239;28;20477;-87
2023/10/12 01:18:45;;;;;;;10.25;4.38;;;20.00;99.90;;;;;;4173931;28;20033;-86
2023/10/12 01:20:49;;;;;;;8.18;4.65;;;19.90;99.90;;;;;;4172224;28;20561;-86
2023/10/12 01:22:49;;;;;;;10.77;4.53;;;19.90;99.90;;;;;;4176669;28;20108;-88
2023/10/12 01:26:53;;;;;;;11.90;4.65;;;19.80;99.90;;;;;;4178531;28;20468;-87
2023/10/12 01:28:55;;;;;;;9.07;4.85;;;19.70;99.90;;;;;;4180750;28;20032;-87
2023/10/12 01:30:56;;;;;;;10.48;5.05;;;19.70;99.90;;;;;;4181131;28;20036;-88
2023/10/12 01:32:59;;;;;;;10.43;5.20;;;19.70;99.90;;;;;;4174292;28;20078;-87
2023/10/12 01:35:04;;;;;;;27.02;7.00;;;19.50;99.90;;;;;;4178347;28;20421;-87
2023/10/12 01:37:11;;;;;;;12.10;5.32;;;19.50;99.90;;;;;;4175215;28;20061;-87
2023/10/12 01:39:13;;;;;;;12.75;5.68;;;19.40;99.90;;;;;;4174879;28;20029;-87
2023/10/12 01:41:24;;;;;;;12.60;6.38;;;19.40;99.90;;;;;;4174401;28;20424;-86
2023/10/12 01:43:28;;;;;;;11.20;6.32;;;19.30;99.90;;;;;;4171275;28;20162;-67
2023/10/12 01:45:40;;;;;;;9.60;5.20;;;19.30;99.90;;;;;;4175366;28;20769;-68
2023/10/12 01:47:41;;;;;;;15.05;6.65;;;19.30;99.90;;;;;;4175278;28;20037;-67
2023/10/12 01:49:45;;;;;;;10.38;6.47;;;19.30;99.90;;;;;;4174690;28;20049;-68
2023/10/12 01:51:46;;;;;;;11.15;6.00;;;19.20;99.90;;;;;;4171466;28;20460;-68
2023/10/12 01:53:49;;;;;;;12.40;7.07;;;19.20;99.90;;;;;;4175258;28;20104;-67
2023/10/12 01:55:51;;;;;;;10.25;6.68;;;19.20;99.90;;;;;;4171247;28;20460;-68
2023/10/12 01:57:53;;;;;;;15.10;8.20;;;19.20;99.90;;;;;;4177632;28;20033;-67
2023/10/12 01:59:54;;;;;;;16.43;7.20;;;19.10;99.90;;;;;;4172659;28;20052;-67
2023/10/12 02:02:07;;;;;;;10.20;6.63;;;19.10;99.90;;;;;;4175773;28;20473;-68
2023/10/12 02:04:07;;;;;;;13.15;7.25;;;19.10;99.90;;;;;;4175572;28;20033;-68
2023/10/12 02:06:19;;;;;;;15.27;8.80;;;19.00;99.90;;;;;;4174272;28;20065;-68
2023/10/12 02:08:20;;;;;;;15.40;7.80;;;18.90;99.90;;;;;;4170141;28;20504;-68
2023/10/12 02:10:24;;;;;;;14.73;7.43;;;18.90;99.90;;;;;;4173864;28;20032;-68
2023/10/12 02:12:26;;;;;;;14.13;7.63;;;18.90;99.90;;;;;;4175615;28;20045;-68
2023/10/12 02:14:33;;;;;;;18.10;9.30;;;18.80;99.90;;;;;;4175349;28;20041;-68
2023/10/12 02:16:38;;;;;;;14.82;8.27;;;18.70;99.90;;;;;;4172275;28;20025;-68
2023/10/12 02:18:40;;;;;;;15.55;8.90;;;18.70;99.90;;;;;;4151382;28;20033;-68
2023/10/12 02:20:47;;;;;;;17.80;9.63;;;18.70;99.90;;;;;;4170571;28;20029;-68
2023/10/12 02:22:52;;;;;;;11.85;6.95;;;18.60;99.90;;;;;;4175254;28;20029;-68
2023/10/12 02:27:24;;;;;;;13.48;7.93;;;18.50;99.90;;;;;;4143114;28;20029;-68
2023/10/12 02:29:24;;;;;;;16.47;7.90;;;18.50;99.90;;;;;;4159018;28;20065;-68
2023/10/12 02:31:28;;;;;;;14.10;6.63;;;18.50;99.90;;;;;;4140161;28;20395;-68
2023/10/12 02:33:35;;;;;;;13.00;7.13;;;18.50;99.90;;;;;;4155505;28;20053;-68
2023/10/12 02:35:44;;;;;;;10.00;6.70;;;18.50;99.90;;;;;;4157203;28;20073;-68
2023/10/12 02:37:46;;;;;;;10.88;6.35;;;18.40;99.90;;;;;;4139027;28;20058;-68
2023/10/12 02:39:47;;;;;;;10.47;6.90;;;18.50;99.90;;;;;;4157702;28;20501;-68
2023/10/12 02:42:05;;;;;;;11.25;6.18;;;18.40;99.90;;;;;;4160444;28;20288;-68
2023/10/12 02:44:11;;;;;;;9.15;6.20;;;18.40;99.90;;;;;;4171197;28;20041;-68
2023/10/12 02:46:22;;;;;;;11.57;6.07;;;18.40;99.90;;;;;;4161748;28;20037;-68
2023/10/12 02:48:26;;;;;;;8.93;5.22;;;18.40;99.90;;;;;;4159112;28;20484;-68
2023/10/12 02:50:32;;;;;;;12.63;6.57;;;18.40;99.90;;;;;;4160149;28;20037;-68
2023/10/12 02:52:33;;;;;;;12.35;6.40;;;18.40;99.90;;;;;;4159624;28;20037;-70
2023/10/12 02:54:50;;;;;;;8.98;6.07;;;18.30;99.90;;;;;;4161470;28;20044;-70
2023/10/12 02:56:56;;;;;;;10.38;6.63;;;18.30;99.90;;;;;;4162482;28;20048;-69
2023/10/12 02:59:03;;;;;;;10.35;6.13;;;18.30;99.90;;;;;;4160765;28;20037;-70
2023/10/12 03:01:13;;;;;;;10.23;6.40;;;18.20;99.90;;;;;;4159681;28;20033;-70
2023/10/12 03:05:32;;;;;;;11.23;6.55;;;18.10;99.90;;;;;;4161029;28;20060;-70
2023/10/12 03:07:36;;;;;;;;;;;18.10;99.90;;;;;;4177238;28;20047;-70
2023/10/12 03:09:43;;;;;;;8.43;5.93;;;18.00;99.90;;;;;;4178217;28;20438;-70
2023/10/12 03:11:43;;;;;;;11.80;7.00;;;18.10;99.90;;;;;;4179889;28;20065;-70
2023/10/12 03:13:54;;;;;;;9.88;6.22;;;18.00;99.90;;;;;;4179075;28;20040;-70
2023/10/12 03:15:59;;;;;;;9.10;5.95;;;18.00;99.90;;;;;;4178387;28;20059;-70
2023/10/12 03:18:02;;;;;;;12.35;6.85;;;18.00;99.90;;;;;;4173315;28;20064;-70
2023/10/12 03:20:19;;;;;;;10.35;6.00;;;18.00;99.90;;;;;;4180704;28;20084;-70
2023/10/12 03:22:34;;;;;;;11.55;6.47;;;18.00;99.90;;;;;;4157369;28;20607;-70
2023/10/12 03:24:52;;;;;;;9.85;5.72;;;18.10;99.90;;;;;;4171471;28;20179;-70
2023/10/12 03:27:27;;;;;;;10.35;7.00;;;18.00;99.90;;;;;;4175967;28;20615;-71
2023/10/12 03:29:20;;;;;;;10.38;5.90;;;18.10;99.90;;;;;;4175991;28;20150;-70
2023/10/12 03:31:23;;;;;;;8.43;6.07;;;18.10;99.90;;;;;;4178125;28;20066;-69
2023/10/12 03:33:34;;;;;;;8.77;5.80;;;18.10;99.90;;;;;;4176256;28;20029;-70
2023/10/12 03:35:44;;;;;;;12.88;6.88;;;18.10;99.90;;;;;;4179871;28;20077;-70
2023/10/12 03:37:45;;;;;;;12.05;7.10;;;18.00;99.90;;;;;;4175796;28;20106;-70
2023/10/12 03:44:05;;;;;;;11.90;6.70;;;17.90;99.90;;;;;;4175516;28;20045;-71
2023/10/12 03:46:18;;;;;;;;;;;17.80;99.90;;;;;;4176284;28;20974;-69
2023/10/12 03:48:25;;;;;;;12.73;7.00;;;17.80;99.90;;;;;;4174075;28;19909;-70
2023/10/12 03:50:27;;;;;;;10.82;6.40;;;17.80;99.90;;;;;;4168328;28;20041;-70
2023/10/12 03:52:34;;;;;;;11.07;6.18;;;17.80;99.90;;;;;;4173825;28;21077;-70
2023/10/12 03:54:35;;;;;;;13.27;6.97;;;17.70;99.90;;;;;;4176034;28;20473;-69
2023/10/12 03:56:39;;;;;;;13.10;6.75;;;17.70;99.90;;;;;;4174708;28;20039;-69
2023/10/12 03:58:46;;;;;;;14.30;7.03;;;17.60;99.90;;;;;;4173974;28;20043;-70
2023/10/12 04:01:06;;;;;;;12.00;6.35;;;17.60;99.90;;;;;;4174573;28;20512;-69
2023/10/12 04:03:14;;;;;;;12.38;6.65;;;17.60;99.90;;;;;;4174191;28;20489;-74
2023/10/12 04:05:21;;;;;;;11.05;5.82;;;17.60;99.90;;;;;;4173992;28;20072;-74
2023/10/12 04:07:37;;;;;;;11.63;6.88;;;17.60;99.90;;;;;;4171040;28;20045;-74
2023/10/12 04:09:43;;;;;;;10.55;6.43;;;17.60;99.90;;;;;;4178554;28;20109;-74
2023/10/12 04:11:51;;;;;;;10.80;5.97;;;17.50;99.90;;;;;;4173803;28;20077;-74
2023/10/12 04:18:16;;;;;;;13.52;6.57;;;17.50;99.90;;;;;;4174381;28;20025;-75
2023/10/12 04:20:21;;;;;;;11.98;6.03;;;17.50;99.90;;;;;;4174549;28;20040;-74
2023/10/12 04:22:25;;;;;;;12.40;7.20;;;17.50;99.90;;;;;;4174138;28;20022;-74
2023/10/12 04:24:42;;;;;;;11.00;6.30;;;17.50;99.90;;;;;;4171973;28;20057;-74
2023/10/12 04:29:21;;;;;;;;;;;17.40;99.90;;;;;;4175562;28;20056;-75
2023/10/12 04:32:09;;;;;;;12.95;6.68;;;17.40;99.90;;;;;;4161458;28;19909;-75
2023/10/12 04:33:51;;;;;;;9.25;6.13;;;17.40;99.90;;;;;;4172274;28;20049;-74
2023/10/12 04:37:54;;;;;;;12.95;6.13;;;17.40;99.90;;;;;;4176577;28;20036;-74
2023/10/12 04:40:09;;;;;;;11.15;6.55;;;17.30;99.90;;;;;;4175727;28;20033;-74
2023/10/12 04:42:20;;;;;;;11.02;7.15;;;17.30;99.90;;;;;;4175378;28;20037;-73
2023/10/12 04:48:31;;;;;;;11.75;6.95;;;17.20;99.90;;;;;;4170416;28;20034;-74
2023/10/12 04:50:52;;;;;;;14.73;6.40;;;17.20;99.90;;;;;;4178710;28;20040;-73
2023/10/12 04:53:09;;;;;;;13.93;7.10;;;17.20;99.90;;;;;;4175760;28;20078;-74
2023/10/12 04:55:20;;;;;;;12.07;7.15;;;17.20;99.90;;;;;;4170699;28;20037;-75
2023/10/12 04:57:26;;;;;;;13.45;7.03;;;17.20;99.90;;;;;;4172332;28;20067;-74
2023/10/12 04:59:42;;;;;;;10.52;6.82;;;17.20;99.90;;;;;;4173699;28;20033;-74
2023/10/12 05:02:28;;;;;;;11.25;6.13;;;17.10;99.90;;;;;;4175588;28;20037;-73
2023/10/12 05:04:18;;;;;;;15.07;6.93;;;17.10;99.90;;;;;;4156020;28;20115;-74
2023/10/12 05:06:24;;;;;;;13.40;6.53;;;17.10;99.90;;;;;;4141411;28;20416;-74
2023/10/12 05:08:25;;;;;;;13.27;6.32;;;17.10;99.90;;;;;;4136823;28;20056;-74
2023/10/12 05:10:27;;;;;;;11.93;6.82;;;17.10;99.90;;;;;;4188291;28;20047;-74
2023/10/12 05:12:27;;;;;;;12.77;6.78;;;17.10;99.90;;;;;;4188513;28;20040;-80
2023/10/12 05:14:29;;;;;;;10.20;6.22;;;17.10;99.90;;;;;;4170527;28;20033;-80
2023/10/12 05:16:31;;;;;;;12.93;7.00;;;17.00;99.90;;;;;;4173034;28;20049;-82
2023/10/12 05:18:32;;;;;;;10.13;6.30;;;17.00;99.90;;;;;;4171140;28;20043;-79
2023/10/12 05:20:33;;;;;;;14.18;7.00;;;17.00;99.90;;;;;;4174944;28;20102;-80
2023/10/12 05:22:35;;;;;;;9.45;5.93;;;17.00;99.90;;;;;;4173024;28;20045;-74
2023/10/12 05:24:35;;;;;;;10.80;6.50;;;17.00;99.90;;;;;;4175355;28;20171;-73
2023/10/12 05:26:37;;;;;;;10.98;6.38;;;17.00;99.90;;;;;;4174458;28;20082;-74
2023/10/12 05:28:47;;;;;;;10.43;6.63;;;17.00;99.90;;;;;;4176906;28;20033;-70
2023/10/12 05:30:55;;;;;;;11.10;6.47;;;17.00;99.90;;;;;;4170076;28;20040;-71
2023/10/12 05:32:56;;;;;;;13.65;6.72;;;16.90;99.90;;;;;;4173109;28;20036;-73
2023/10/12 05:34:57;;;;;;;13.05;6.70;;;17.00;99.90;;;;;;4174831;28;20117;-74
2023/10/12 05:37:08;;;;;;;12.90;6.05;;;17.00;99.90;;;;;;4172973;28;20493;-74
2023/10/12 05:39:12;;;;;;;10.75;5.70;;;16.90;99.90;;;;;;4157732;28;20048;-73
2023/10/12 05:41:12;;;;;;;11.50;5.90;;;17.00;99.90;;;;;;4167966;28;20033;-73
2023/10/12 05:43:21;;;;;;;10.32;6.72;;;17.00;99.90;;;;;;4171000;28;20435;-73
2023/10/12 05:45:27;;;;;;;10.63;6.20;;;17.00;99.90;;;;;;4156221;28;20545;-75
2023/10/12 05:47:30;;;;;;;10.40;6.07;;;17.00;99.90;;;;;;4168894;28;20057;-74
2023/10/12 05:49:33;;;;;;;9.88;5.65;;;17.00;99.90;;;;;;4173424;28;20060;-74
2023/10/12 05:51:37;;;;;;;11.63;5.55;;;17.00;99.90;;;;;;4173253;28;20051;-74
2023/10/12 05:53:38;;;;;;;8.85;6.15;;;17.00;99.90;;;;;;4174515;28;20083;-73
2023/10/12 05:55:40;;;;;;;10.45;5.95;;;17.00;99.90;;;;;;4170856;28;20040;-73
2023/10/12 05:57:41;;;;;;;10.73;6.22;;;17.00;99.90;;;;;;4170515;28;20037;-74
2023/10/12 05:59:44;;;;;;;11.02;6.20;;;17.00;99.90;;;;;;4172625;28;20104;-73
2023/10/12 06:01:45;;;;;;;10.82;5.75;;;17.00;99.90;;;;;;4173105;28;20041;-71
2023/10/12 06:03:56;;;;;;;10.97;6.73;;;17.00;99.90;;;;;;4165879;28;20422;-72
2023/10/12 06:05:56;;;;;;;10.25;5.60;;;17.00;99.90;;;;;;4171615;28;20055;-72
2023/10/12 06:08:00;;;;;;;12.68;6.32;;;17.00;99.90;;;;;;4173929;28;20065;-71
2023/10/12 06:10:09;;;;;;;8.82;6.07;;;17.00;99.90;;;;;;4171392;28;20104;-72
2023/10/12 06:12:12;;;;;;;11.60;6.38;;;17.00;99.90;;;;;;4177785;28;20146;-72
2023/10/12 06:14:14;;;;;;;12.57;6.18;;;17.00;99.90;;;;;;4176083;28;20450;-72
2023/10/12 06:16:15;;;;;;;10.05;6.43;;;17.00;99.90;;;;;;4178851;28;20485;-72
2023/10/12 06:18:21;;;;;;;14.20;6.50;;;17.00;99.90;;;;;;4176866;28;20105;-72
2023/10/12 06:22:41;;;;;;;10.23;5.68;;;17.00;99.90;;;;;;4176780;28;20099;-72
2023/10/12 06:24:44;;;;;;;11.05;6.32;;;17.00;99.90;;;;;;4177415;28;20049;-72
2023/10/12 06:26:44;;;;;;;;;;;17.00;99.90;;;;;;4176406;28;20130;-72
2023/10/12 06:28:45;;;;;;;11.80;6.35;;;17.00;99.90;;;;;;4177081;28;19909;-72
2023/10/12 06:30:46;;;;;;;10.98;6.25;;;17.00;99.90;;;;;;4177817;28;20497;-72
2023/10/12 06:32:47;;;;;;;9.57;5.80;;;17.00;99.90;;;;;;4173967;28;20103;-69
2023/10/12 06:35:12;;;;;;;11.90;5.90;;;17.00;99.90;;;;;;4173792;28;20052;-69
2023/10/12 06:37:30;;;;;;;10.63;5.70;;;17.10;99.90;;;;;;4173793;28;20037;-70
2023/10/12 06:40:08;;;;;;;9.07;5.45;;;17.10;99.90;;;;;;4175123;28;20530;-69
2023/10/12 06:43:57;;;;;;;9.57;5.65;;;17.00;99.90;;;;;;4176134;28;21170;-69
2023/10/12 06:45:58;;;;;;;10.65;5.68;;;17.00;99.90;;;;;;4173007;28;20120;-69
2023/10/12 06:48:21;;;;;;;11.70;5.75;;;17.10;99.90;;;;;;4172549;28;20436;-69
2023/10/12 06:50:20;;;;;;;8.75;5.32;;;17.10;99.90;;;;;;4172606;28;20053;-69
2023/10/12 06:52:22;;;;;;;8.93;6.03;;;17.10;99.90;;;;;;4177803;28;20116;-69
2023/10/12 06:54:32;;;;;;;7.43;5.10;;;17.00;99.90;;;;;;4175212;28;20033;-69
2023/10/12 06:56:39;;;;;;;11.45;6.05;;;17.10;99.90;;;;;;4172396;28;20397;-69
2023/10/12 06:58:39;;;;;;;8.88;5.40;;;17.10;99.90;;;;;;4177326;28;20789;-69
2023/10/12 07:00:59;;;;;;;11.43;5.57;;;17.10;99.90;;;;;;4175515;28;20110;-69
2023/10/12 07:03:00;;;;;;;7.82;5.07;;;17.10;99.90;;;;;;4170148;28;20041;-69
2023/10/12 07:05:04;;;;;;;8.73;5.38;;;17.10;99.90;;;;;;4176423;28;20428;-69
2023/10/12 07:07:11;;;;;;;9.13;5.53;;;17.20;99.90;;;;;;4170408;28;20032;-69
2023/10/12 07:09:12;;;;;;;9.25;4.53;;;17.10;99.90;;;;;;4182366;28;20504;-70
2023/10/12 07:11:14;;;;;;;7.70;4.47;;;17.20;99.90;;;;;;4175553;28;20037;-71
2023/10/12 07:13:14;;;;;;;9.27;5.70;;;17.20;99.90;;;;;;4181677;28;20041;-69
2023/10/12 07:15:21;;;;;;;12.10;5.80;;;17.20;99.90;;;;;;4174810;28;20044;-70
2023/10/12 07:17:31;;;;;;;10.27;5.22;;;17.20;99.90;;;;;;4173207;28;20112;-69
2023/10/12 07:19:32;;;;;;;8.38;5.10;;;17.20;99.90;;;;;;4161720;28;20453;-69
2023/10/12 07:21:32;;;;;;;18.48;5.70;;;17.20;99.90;;;;;;4168951;28;20033;-69
2023/10/12 07:23:36;;;;;;;9.43;5.45;;;17.20;99.90;;;;;;4175538;28;20036;-69
2023/10/12 07:25:37;;;;;;;14.43;6.38;;;17.20;99.90;;;;;;4178342;28;20745;-69
2023/10/12 07:27:48;;;;;;;11.73;6.20;;;17.20;99.90;;;;;;4174568;28;20071;-69
2023/10/12 07:30:14;;;;;;;8.65;5.50;;;17.20;99.90;;;;;;4175366;28;20172;-70
2023/10/12 07:32:26;;;;;;;9.93;5.78;;;17.20;99.90;;;;;;4175335;28;20029;-70
2023/10/12 07:34:27;;;;;;;7.40;4.95;;;17.20;99.90;;;;;;4176953;28;20041;-69
2023/10/12 07:38:41;;;;;;;;;;;17.20;99.90;;;;;;4169546;28;20075;-69
2023/10/12 07:40:56;;;;;;;8.70;4.63;;;17.20;99.90;;;;;;4175176;28;19931;-70
2023/10/12 07:43:03;;;;;;;7.75;4.60;;;17.20;99.90;;;;;;4173961;28;20041;-69
2023/10/12 07:45:06;;;;;;;7.97;4.72;;;17.20;99.90;;;;;;4174181;28;20049;-69
2023/10/12 07:47:14;;;;;;;6.40;4.47;;;17.30;99.90;;;;;;4174652;28;20054;-69
2023/10/12 07:49:30;;;;;;;7.40;5.05;;;17.30;99.90;;;;;;4175295;28;20572;-69
2023/10/12 07:51:53;;;;;;;7.80;5.05;;;17.30;99.90;;;;;;4170889;28;20041;-69
2023/10/12 07:54:09;;;;;;;7.60;5.15;;;17.30;99.90;;;;;;4177186;28;20067;-69
2023/10/12 07:56:16;;;;;;;13.88;6.18;;;17.30;99.90;;;;;;4178282;28;20041;-69
2023/10/12 07:58:18;;;;;;;9.70;5.25;;;17.30;99.90;;;;;;4172949;28;20406;-69
2023/10/12 08:00:29;;;;;;;8.43;5.30;;;17.30;99.90;;;;;;4173083;28;20036;-69
2023/10/12 08:05:06;;;;;;;7.53;4.90;;;17.30;99.90;;;;;;4172565;28;20041;-69
2023/10/12 08:07:07;;;;;;;14.55;5.70;;;17.40;99.90;;;;;;4173245;28;20064;-69
2023/10/12 08:09:51;;;;;;;8.23;5.20;;;17.30;99.90;;;;;;4175451;28;20473;-69
2023/10/12 08:11:34;;;;;;;8.82;5.63;;;17.30;99.90;;;;;;4172894;28;20044;-69
2023/10/12 08:13:48;;;;;;;8.00;5.43;;;17.40;99.90;;;;;;4175422;28;20386;-69
2023/10/12 08:15:55;;;;;;;7.80;5.32;;;17.40;99.90;;;;;;4174822;28;20095;-69
2023/10/12 08:18:12;;;;;;;10.38;5.75;;;17.40;99.90;;;;;;4179453;28;20553;-69
2023/10/12 08:22:57;;;;;;;9.13;5.25;;;17.40;99.90;;;;;;4138998;28;20037;-69
2023/10/12 08:25:04;;;;;;;7.43;5.32;;;17.40;99.90;;;;;;4139382;28;20426;-68
2023/10/12 08:27:06;;;;;;;10.57;5.63;;;17.40;99.90;;;;;;4139728;28;20105;-69
2023/10/12 08:29:17;;;;;;;12.52;5.65;;;17.40;99.90;;;;;;4180192;28;20044;-68
2023/10/12 08:31:20;;;;;;;9.98;5.43;;;17.40;99.90;;;;;;4169842;28;20040;-69
2023/10/12 08:33:48;;;;;;;9.90;5.88;;;17.40;99.90;;;;;;4175087;28;20475;-69
2023/10/12 08:38:32;;;;;;;7.50;5.30;;;17.40;99.90;;;;;;4174224;28;20037;-68
2023/10/12 08:40:26;;;;;;;9.18;5.40;;;17.40;99.90;;;;;;4173693;28;21885;-69
2023/10/12 08:42:37;;;;;;;9.30;5.85;;;17.40;99.90;;;;;;4176392;28;20044;-68
2023/10/12 08:44:38;;;;;;;7.53;5.22;;;17.40;99.90;;;;;;4175985;28;20037;-68
2023/10/12 08:48:55;;;;;;;11.40;5.57;;;17.50;99.90;;;;;;4175484;28;20040;-68
2023/10/12 08:50:58;;;;;;;10.57;5.90;;;17.50;99.90;;;;;;4171738;28;20033;-68
2023/10/12 08:53:03;;;;;;;7.63;5.38;;;17.50;99.90;;;;;;4173653;28;20044;-71
2023/10/12 08:55:13;;;;;;;9.27;4.93;;;17.50;99.90;;;;;;4173963;28;20049;-71
2023/10/12 08:57:19;;;;;;;9.52;5.32;;;17.50;99.90;;;;;;4176417;28;20075;-72
2023/10/12 08:59:20;;;;;;;8.70;5.25;;;17.50;99.90;;;;;;4174522;28;20389;-72
2023/10/12 09:01:26;;;;;;;11.50;5.22;;;17.50;99.90;;;;;;4169883;28;20037;-71
2023/10/12 09:03:38;;;;;;;8.27;5.07;;;17.50;99.90;;;;;;4176200;28;20347;-71
2023/10/12 09:05:39;;;;;;;7.45;4.53;;;17.50;99.90;;;;;;4172968;28;20044;-71
2023/10/12 09:07:45;;;;;;;9.25;5.05;;;17.60;99.90;;;;;;4169827;28;20056;-71
2023/10/12 09:09:55;;;;;;;8.27;5.28;;;17.60;99.90;;;;;;4178730;28;20142;-71
2023/10/12 09:11:59;;;;;;;9.10;4.78;;;17.60;99.90;;;;;;4172943;28;20424;-71
2023/10/12 09:14:11;;;;;;;10.02;5.38;;;17.60;99.90;;;;;;4171795;28;20029;-71
2023/10/12 09:16:14;;;;;;;8.15;5.43;;;17.60;99.90;;;;;;4175475;28;20040;-71
2023/10/12 09:18:18;;;;;;;8.02;4.97;;;17.70;99.90;;;;;;4174267;28;20515;-71
2023/10/12 09:20:28;;;;;;;6.60;4.15;;;17.70;99.90;;;;;;4173745;28;20038;-71
2023/10/12 09:22:29;;;;;;;6.82;4.28;;;17.80;99.90;;;;;;4174486;28;20029;-71
2023/10/12 09:24:36;;;;;;;9.98;5.05;;;17.80;99.90;;;;;;4170703;28;20571;-71
2023/10/12 09:26:47;;;;;;;7.88;4.68;;;17.90;99.90;;;;;;4170660;28;20117;-71
2023/10/12 09:30:50;;;;;;;8.55;5.18;;;17.90;99.90;;;;;;4175694;28;20124;-71
2023/10/12 09:33:11;;;;;;;10.57;5.40;;;17.90;99.90;;;;;;4173133;28;20102;-71
2023/10/12 09:35:19;;;;;;;7.88;4.70;;;17.90;99.90;;;;;;4174744;28;20127;-72
2023/10/12 09:37:20;;;;;;;7.35;4.38;;;18.00;99.90;;;;;;4174986;28;20044;-70
2023/10/12 09:39:27;;;;;;;9.85;5.40;;;18.00;99.90;;;;;;4178306;28;20091;-71
2023/10/12 09:41:32;;;;;;;10.55;5.15;;;18.00;99.90;;;;;;4175692;28;20478;-71
2023/10/12 09:43:38;;;;;;;6.40;4.28;;;18.10;99.90;;;;;;4189984;28;20086;-71
2023/10/12 09:45:45;;;;;;;6.57;4.82;;;18.10;99.90;;;;;;4176029;28;20044;-71
2023/10/12 09:47:55;;;;;;;8.15;4.85;;;18.20;99.90;;;;;;4175296;28;20052;-70
2023/10/12 09:49:59;;;;;;;9.13;5.10;;;18.20;99.90;;;;;;4175534;28;20374;-71
2023/10/12 09:52:07;;;;;;;8.80;4.80;;;18.20;99.90;;;;;;4177675;28;20025;-71
2023/10/12 09:54:15;;;;;;;11.95;4.57;;;18.20;99.90;;;;;;4175563;28;20045;-71
2023/10/12 09:56:24;;;;;;;7.47;4.20;;;18.30;99.90;;;;;;4174752;28;20146;-71
2023/10/12 09:58:25;;;;;;;8.68;4.30;;;18.30;99.90;;;;;;4178547;28;20045;-71
2023/10/12 10:02:55;;;;;;;8.15;3.97;;;18.30;99.90;;;;;;4174208;28;20430;-70
2023/10/12 10:05:11;;;;;;;10.32;5.25;;;18.40;99.90;;;;;;4175261;28;20714;-69
2023/10/12 10:07:18;;;;;;;6.70;3.88;;;18.40;99.90;;;;;;4177169;28;20045;-70
2023/10/12 10:09:41;;;;;;;5.95;4.25;;;18.40;99.90;;;;;;4176949;28;20487;-70
2023/10/12 10:11:42;;;;;;;7.57;4.40;;;18.50;99.90;;;;;;4176186;28;20033;-70
2023/10/12 10:13:47;;;;;;;5.28;4.00;;;18.50;99.90;;;;;;4176752;28;20116;-70
2023/10/12 10:15:56;;;;;;;7.93;4.70;;;18.50;99.90;;;;;;4175507;28;20048;-70
2023/10/12 10:17:57;;;;;;;7.97;4.35;;;18.60;99.90;;;;;;4175805;28;20033;-70
2023/10/12 10:22:38;;;;;;;9.10;5.15;;;18.60;99.90;;;;;;4156890;28;20052;-69
2023/10/12 10:24:45;;;;;;;9.38;5.18;;;18.60;99.90;;;;;;4177486;28;20041;-69
2023/10/12 10:26:57;;;;;;;7.93;4.22;;;18.60;99.90;;;;;;4175821;28;20703;-69
2023/10/12 10:29:17;;;;;;;11.55;5.25;;;18.60;99.90;;;;;;4180694;28;20040;-69
2023/10/12 10:31:24;;;;;;;8.00;5.22;;;18.60;99.90;;;;;;4174287;28;20040;-70
2023/10/12 10:33:28;;;;;;;11.57;6.18;;;18.60;99.90;;;;;;4175352;28;20078;-70
2023/10/12 10:35:58;;;;;;;10.38;5.25;;;18.60;99.90;;;;;;4178420;28;20041;-70
2023/10/12 10:37:59;;;;;;;9.45;5.15;;;18.60;99.90;;;;;;4171939;28;20056;-70
2023/10/12 10:40:07;;;;;;;12.30;5.32;;;18.60;99.90;;;;;;4177641;28;20390;-72
2023/10/12 10:42:09;;;;;;;9.00;5.18;;;18.60;99.90;;;;;;4176010;28;20037;-72
2023/10/12 10:44:15;;;;;;;9.70;4.95;;;18.60;99.90;;;;;;4177822;28;20108;-74
2023/10/12 10:46:17;;;;;;;11.35;6.00;;;18.70;99.90;;;;;;4170255;28;20112;-72
2023/10/12 10:48:18;;;;;;;8.83;5.10;;;18.60;99.90;;;;;;4174103;28;20029;-73
2023/10/12 10:50:20;;;;;;;9.18;5.43;;;18.60;99.90;;;;;;4188775;28;20647;-72
2023/10/12 10:52:22;;;;;;;10.13;4.65;;;18.60;99.90;;;;;;4159295;28;20068;-72
2023/10/12 10:54:23;;;;;;;11.83;4.97;;;18.70;99.90;;;;;;4180915;28;20033;-72
2023/10/12 10:56:41;;;;;;;8.52;4.78;;;18.60;99.90;;;;;;4174871;28;20627;-72
2023/10/12 10:58:46;;;;;;;9.85;5.28;;;18.70;99.90;;;;;;4176075;28;20044;-72
2023/10/12 11:00:56;;;;;;;10.70;5.30;;;18.70;99.90;;;;;;4173326;28;20041;-72
2023/10/12 11:02:56;;;;;;;9.38;4.70;;;18.70;99.90;;;;;;4176863;28;20481;-72
2023/10/12 11:05:00;;;;;;;6.72;4.28;;;18.70;99.90;;;;;;4179158;28;20072;-72
2023/10/12 11:07:03;;;;;;;9.13;4.60;;;18.70;99.90;;;;;;4171170;28;20029;-72
2023/10/12 11:09:07;;;;;;;9.38;4.68;;;18.70;99.90;;;;;;4177288;28;21451;-72
2023/10/12 11:13:17;;;;;;;8.60;4.35;;;18.70;99.90;;;;;;4177597;28;20033;-70
2023/10/12 11:15:20;;;;;;;7.32;4.22;;;18.70;99.90;;;;;;4177811;28;20041;-70
2023/10/12 11:17:20;;;;;;;;;;;18.80;99.90;;;;;;4175751;28;20068;-70
2023/10/12 11:19:23;;;;;;;12.48;4.80;;;18.80;99.90;;;;;;4181886;28;19943;-70
2023/10/12 11:21:28;;;;;;;9.05;4.38;;;18.70;99.90;;;;;;4178234;28;20043;-69
2023/10/12 11:23:29;;;;;;;12.38;4.53;;;18.70;99.90;;;;;;4178114;28;20033;-69
2023/10/12 11:25:29;;;;;;;12.38;4.75;;;18.70;99.90;;;;;;4172188;28;20507;-69
2023/10/12 11:27:34;;;;;;;9.88;4.47;;;18.80;99.90;;;;;;4175239;28;20041;-69
2023/10/12 11:29:52;;;;;;;9.35;4.65;;;18.80;99.90;;;;;;4176864;28;20041;-69
2023/10/12 11:32:11;;;;;;;10.65;4.38;;;18.80;99.90;;;;;;4172801;28;20076;-69
2023/10/12 11:34:23;;;;;;;8.13;4.05;;;18.80;99.90;;;;;;4173187;28;20130;-69
2023/10/12 11:36:24;;;;;;;10.13;4.45;;;18.70;99.90;;;;;;4167357;28;20075;-69
2023/10/12 11:38:25;;;;;;;7.03;4.28;;;18.80;99.90;;;;;;4172311;28;20040;-69
2023/10/12 11:40:30;;;;;;;10.60;4.68;;;18.80;99.90;;;;;;4174463;28;20040;-69
2023/10/12 11:42:30;;;;;;;7.68;4.35;;;18.80;99.90;;;;;;4176463;28;20106;-69
2023/10/12 11:44:36;;;;;;;6.47;3.58;;;18.90;99.90;;;;;;4174831;28;20457;-69
2023/10/12 11:46:43;;;;;;;8.80;4.45;;;18.90;99.90;;;;;;4176538;28;20041;-70
2023/10/12 11:48:44;;;;;;;11.25;5.13;;;18.90;99.90;;;;;;4173989;28;20025;-70